createdAt,value
2018-03-17T00:01:50.163Z,97.60
2018-03-17T00:04:17.643Z,97.20
2018-03-17T00:06:45.096Z,97.10
2018-03-17T00:09:12.547Z,97.50
2018-03-17T00:11:40.256Z,97.30
2018-03-17T00:14:07.705Z,96.40
2018-03-17T00:16:35.207Z,96.60
2018-03-17T00:19:02.676Z,96.60
2018-03-17T00:21:30.148Z,96.90
2018-03-17T00:23:57.607Z,97.00
2018-03-17T00:26:25.342Z,97.00
2018-03-17T00:28:53.575Z,96.40
2018-03-17T00:31:21.032Z,96.40
2018-03-17T00:33:48.517Z,96.00
2018-03-17T00:36:15.968Z,95.80
2018-03-17T00:38:43.428Z,96.00
2018-03-17T00:41:10.908Z,96.10
2018-03-17T00:43:38.364Z,96.60
2018-03-17T00:46:11.810Z,96.20
2018-03-17T00:48:39.271Z,95.90
2018-03-17T00:51:06.732Z,95.80
2018-03-17T00:53:34.508Z,95.60
2018-03-17T00:56:01.970Z,95.20
2018-03-17T00:58:29.427Z,95.50
2018-03-17T01:00:56.910Z,95.50
2018-03-17T01:03:24.368Z,95.40
2018-03-17T01:05:51.927Z,95.50
2018-03-17T01:08:19.499Z,95.90
2018-03-17T01:10:47.009Z,95.80
2018-03-17T01:13:15.184Z,95.30
2018-03-17T01:15:42.674Z,95.30
2018-03-17T01:18:10.127Z,95.20
2018-03-17T01:20:37.582Z,94.80
2018-03-17T01:23:05.055Z,95.20
2018-03-17T01:25:32.551Z,94.90
2018-03-17T01:28:00.020Z,94.50
2018-03-17T01:30:27.595Z,94.80
2018-03-17T01:32:55.055Z,94.90
2018-03-17T01:35:22.551Z,95.40
2018-03-17T01:37:50.038Z,94.70
2018-03-17T01:40:18.273Z,93.80
2018-03-17T01:42:45.727Z,93.70
2018-03-17T01:45:13.199Z,93.80
2018-03-17T01:47:40.659Z,94.50
2018-03-17T01:50:08.179Z,94.60
2018-03-17T01:52:35.657Z,93.80
2018-03-17T01:55:03.107Z,94.40
2018-03-17T01:57:30.572Z,94.00
2018-03-17T01:59:58.048Z,94.10
2018-03-17T02:02:25.503Z,93.80
2018-03-17T02:04:52.959Z,94.00
2018-03-17T02:07:20.432Z,94.00
2018-03-17T02:09:47.891Z,94.00
2018-03-17T02:12:15.353Z,93.80
2018-03-17T02:14:42.928Z,94.00
2018-03-17T02:17:10.388Z,94.10
2018-03-17T02:19:38.611Z,94.00
2018-03-17T02:22:06.100Z,93.90
2018-03-17T02:24:33.562Z,94.30
2018-03-17T02:27:01.096Z,94.10
2018-03-17T02:29:28.566Z,94.50
2018-03-17T02:31:56.028Z,94.00
2018-03-17T02:34:24.256Z,94.10
2018-03-17T02:36:51.729Z,94.10
2018-03-17T02:39:19.211Z,94.10
2018-03-17T02:41:46.688Z,94.10
2018-03-17T02:44:14.249Z,94.00
2018-03-17T02:46:41.699Z,94.50
2018-03-17T02:49:09.191Z,94.50
2018-03-17T02:51:36.764Z,94.50
2018-03-17T02:54:04.235Z,95.00
2018-03-17T02:56:31.803Z,95.60
2018-03-17T02:58:59.272Z,95.50
2018-03-17T03:01:26.731Z,95.80
2018-03-17T03:03:54.218Z,96.10
2018-03-17T03:06:21.679Z,96.20
2018-03-17T03:08:49.168Z,96.40
2018-03-17T03:11:16.629Z,96.10
2018-03-17T03:13:44.087Z,96.40
2018-03-17T03:16:11.558Z,96.30
2018-03-17T03:18:39.015Z,96.50
2018-03-17T03:21:06.506Z,96.80
2018-03-17T03:23:33.971Z,96.70
2018-03-17T03:26:01.428Z,96.50
2018-03-17T03:28:28.899Z,96.50
2018-03-17T03:30:56.380Z,96.50
2018-03-17T03:33:23.947Z,96.70
2018-03-17T03:35:51.575Z,96.30
2018-03-17T03:38:19.095Z,96.20
2018-03-17T03:40:46.576Z,96.30
2018-03-17T03:43:14.034Z,96.10
2018-03-17T03:45:41.623Z,96.30
2018-03-17T03:48:09.071Z,96.30
2018-03-17T03:50:36.551Z,96.70
2018-03-17T03:53:04.018Z,96.70
2018-03-17T03:55:31.470Z,96.30
2018-03-17T03:57:58.955Z,96.30
2018-03-17T04:00:26.432Z,96.30
2018-03-17T04:02:53.891Z,96.30
2018-03-17T04:05:21.359Z,96.30
2018-03-17T04:07:48.835Z,96.10
2018-03-17T04:10:16.399Z,96.20
2018-03-17T04:12:43.850Z,96.20
2018-03-17T04:15:11.307Z,95.80
2018-03-17T04:17:38.784Z,95.80
2018-03-17T04:20:06.238Z,95.80
2018-03-17T04:22:34.475Z,96.00
2018-03-17T04:25:01.947Z,96.00
2018-03-17T04:27:29.404Z,95.70
2018-03-17T04:29:56.874Z,95.70
2018-03-17T04:32:24.324Z,95.70
2018-03-17T04:34:51.800Z,96.00
2018-03-17T04:37:19.255Z,95.70
2018-03-17T04:39:46.732Z,95.80
2018-03-17T04:42:14.211Z,95.80
2018-03-17T04:44:41.664Z,95.70
2018-03-17T04:47:09.140Z,95.50
2018-03-17T04:49:36.605Z,95.60
2018-03-17T04:52:04.115Z,95.50
2018-03-17T04:54:31.688Z,95.10
2018-03-17T04:56:59.146Z,94.70
2018-03-17T04:59:26.615Z,95.20
2018-03-17T05:01:54.096Z,94.70
2018-03-17T05:04:21.555Z,94.70
2018-03-17T05:06:49.023Z,94.70
2018-03-17T05:09:16.483Z,94.60
2018-03-17T05:11:43.973Z,94.80
2018-03-17T05:14:11.430Z,94.60
2018-03-17T05:16:38.887Z,94.20
2018-03-17T05:19:06.387Z,94.60
2018-03-17T05:21:33.850Z,94.70
2018-03-17T05:24:01.335Z,94.00
2018-03-17T05:26:28.795Z,94.40
2018-03-17T05:28:56.248Z,94.60
2018-03-17T05:31:23.739Z,94.60
2018-03-17T05:33:51.196Z,95.00
2018-03-17T05:36:18.670Z,93.80
2018-03-17T05:38:46.128Z,94.10
2018-03-17T05:41:13.598Z,94.10
2018-03-17T05:43:41.063Z,93.70
2018-03-17T05:46:08.526Z,93.80
2018-03-17T05:48:36.340Z,93.80
2018-03-17T05:51:03.792Z,93.50
2018-03-17T05:53:31.251Z,94.10
2018-03-17T05:55:58.719Z,93.70
2018-03-17T05:58:26.182Z,94.10
2018-03-17T06:00:53.653Z,94.20
2018-03-17T06:03:21.107Z,94.10
2018-03-17T06:05:48.571Z,93.40
2018-03-17T06:08:16.035Z,93.60
2018-03-17T06:10:43.491Z,93.30
2018-03-17T06:13:11.722Z,93.50
2018-03-17T06:15:39.191Z,93.50
2018-03-17T06:18:06.647Z,93.50
2018-03-17T06:20:34.211Z,92.70
2018-03-17T06:23:01.731Z,92.90
2018-03-17T06:25:29.299Z,92.10
2018-03-17T06:27:56.750Z,92.90
2018-03-17T06:30:24.202Z,92.00
2018-03-17T06:32:51.766Z,91.60
2018-03-17T06:35:19.228Z,92.50
2018-03-17T06:37:47.503Z,93.20
2018-03-17T06:40:14.955Z,93.20
2018-03-17T06:42:42.462Z,93.30
2018-03-17T06:45:09.929Z,94.00
2018-03-17T06:47:37.383Z,93.80
2018-03-17T06:50:05.632Z,93.10
2018-03-17T06:52:33.092Z,93.10
2018-03-17T06:55:00.576Z,93.80
2018-03-17T06:57:28.151Z,94.10
2018-03-17T06:59:55.670Z,94.40
2018-03-17T07:02:23.206Z,94.10
2018-03-17T07:04:52.252Z,94.40
2018-03-17T07:07:19.769Z,94.30
2018-03-17T07:09:47.289Z,94.40
2018-03-17T07:12:15.542Z,94.30
2018-03-17T07:14:43.328Z,94.30
2018-03-17T07:17:11.669Z,93.80
2018-03-17T07:19:39.193Z,93.70
2018-03-17T07:22:07.430Z,93.60
2018-03-17T07:24:34.876Z,93.60
2018-03-17T07:27:02.328Z,93.40
2018-03-17T07:29:29.799Z,93.20
2018-03-17T07:31:58.051Z,92.60
2018-03-17T07:34:25.544Z,92.60
2018-03-17T07:36:53.050Z,92.50
2018-03-17T07:39:20.515Z,92.70
2018-03-17T07:41:48.808Z,91.80
2018-03-17T07:44:16.342Z,91.80
2018-03-17T07:46:43.921Z,92.10
2018-03-17T07:49:11.455Z,91.90
2018-03-17T07:51:39.016Z,91.40
2018-03-17T07:54:06.604Z,91.30
2018-03-17T07:56:34.083Z,91.30
2018-03-17T07:59:01.572Z,91.50
2018-03-17T08:01:29.213Z,91.50
2018-03-17T08:03:56.701Z,91.40
2018-03-17T08:06:24.235Z,91.30
2018-03-17T08:08:51.689Z,91.20
2018-03-17T08:12:45.134Z,91.10
2018-03-17T08:15:12.586Z,90.60
2018-03-17T08:17:40.069Z,91.30
2018-03-17T08:20:07.559Z,91.40
2018-03-17T08:22:35.060Z,91.20
2018-03-17T08:25:02.519Z,90.70
2018-03-17T08:27:30.834Z,90.90
2018-03-17T08:29:58.328Z,91.00
2018-03-17T08:32:25.864Z,91.10
2018-03-17T08:34:54.093Z,91.00
2018-03-17T08:37:21.574Z,91.00
2018-03-17T08:39:49.031Z,90.90
2018-03-17T08:42:16.495Z,89.70
2018-03-17T08:44:43.971Z,89.90
2018-03-17T08:47:11.447Z,90.40
2018-03-17T08:49:38.915Z,91.00
2018-03-17T08:52:06.372Z,90.40
2018-03-17T08:54:33.832Z,89.70
2018-03-17T08:57:01.314Z,88.80
2018-03-17T08:59:28.807Z,86.70
2018-03-17T09:01:56.263Z,87.40
2018-03-17T09:04:23.739Z,87.20
2018-03-17T09:06:51.187Z,87.70
2018-03-17T09:09:18.639Z,87.80
2018-03-17T09:11:46.455Z,87.70
2018-03-17T09:14:13.907Z,89.30
2018-03-17T09:16:41.395Z,89.50
2018-03-17T09:19:08.973Z,87.80
2018-03-17T09:21:36.495Z,86.50
2018-03-17T09:24:03.943Z,87.00
2018-03-17T09:26:32.183Z,89.30
2018-03-17T09:28:59.631Z,89.20
2018-03-17T09:31:27.091Z,87.60
2018-03-17T09:33:54.572Z,86.50
2018-03-17T09:36:22.089Z,85.30
2018-03-17T09:38:49.537Z,86.00
2018-03-17T09:41:17.030Z,84.80
2018-03-17T09:43:44.474Z,85.40
2018-03-17T09:46:11.935Z,85.10
2018-03-17T09:48:39.427Z,85.50
2018-03-17T09:51:06.875Z,84.90
2018-03-17T09:53:34.329Z,86.20
2018-03-17T09:56:01.844Z,85.30
2018-03-17T09:58:29.295Z,84.70
2018-03-17T10:00:56.753Z,86.10
2018-03-17T10:03:24.227Z,84.90
2018-03-17T10:05:51.687Z,85.30
2018-03-17T10:08:19.135Z,85.00
2018-03-17T10:10:46.616Z,86.30
2018-03-17T10:13:14.120Z,83.80
2018-03-17T10:15:41.595Z,84.90
2018-03-17T10:18:09.166Z,83.80
2018-03-17T10:20:36.640Z,83.60
2018-03-17T10:23:04.095Z,83.80
2018-03-17T10:25:31.578Z,84.50
2018-03-17T10:27:59.036Z,82.70
2018-03-17T10:30:26.569Z,82.70
2018-03-17T10:32:54.092Z,84.50
2018-03-17T10:35:21.547Z,83.10
2018-03-17T10:37:49.084Z,83.40
2018-03-17T10:40:16.549Z,84.50
2018-03-17T10:42:43.996Z,83.60
2018-03-17T10:45:12.231Z,83.10
2018-03-17T10:47:39.696Z,83.10
2018-03-17T10:50:07.175Z,81.10
2018-03-17T10:52:34.631Z,83.30
2018-03-17T10:55:02.135Z,83.70
2018-03-17T10:57:29.595Z,83.50
2018-03-17T10:59:57.047Z,82.00
2018-03-17T11:02:24.516Z,81.70
2018-03-17T11:04:51.972Z,81.50
2018-03-17T11:07:19.444Z,82.00
2018-03-17T11:09:46.911Z,81.10
2018-03-17T11:12:14.431Z,81.50
2018-03-17T11:14:41.997Z,82.10
2018-03-17T11:17:09.469Z,82.60
2018-03-17T11:19:36.992Z,82.50
2018-03-17T11:22:04.434Z,82.40
2018-03-17T11:24:32.687Z,81.90
2018-03-17T11:27:00.152Z,81.90
2018-03-17T11:29:27.623Z,82.00
2018-03-17T11:31:55.157Z,81.80
2018-03-17T11:34:22.600Z,80.50
2018-03-17T11:36:50.147Z,82.20
2018-03-17T11:39:17.619Z,80.90
2018-03-17T11:41:45.075Z,82.00
2018-03-17T11:44:12.527Z,86.10
2018-03-17T11:46:40.008Z,83.80
2018-03-17T11:49:07.459Z,81.80
2018-03-17T11:51:34.907Z,79.90
2018-03-17T11:54:03.135Z,80.60
2018-03-17T11:56:30.587Z,80.70
2018-03-17T11:58:58.083Z,80.50
2018-03-17T12:01:25.569Z,79.50
2018-03-17T12:03:53.025Z,81.50
2018-03-17T12:06:20.483Z,81.00
2018-03-17T12:08:47.975Z,80.80
2018-03-17T12:11:16.256Z,79.50
2018-03-17T12:13:43.738Z,79.40
2018-03-17T12:16:11.295Z,80.10
2018-03-17T12:18:38.748Z,84.30
2018-03-17T12:21:06.239Z,83.20
2018-03-17T12:23:33.712Z,81.20
2018-03-17T12:26:01.183Z,79.50
2018-03-17T12:28:28.664Z,78.40
2018-03-17T12:30:56.125Z,80.80
2018-03-17T12:33:23.567Z,78.50
2018-03-17T12:35:51.062Z,79.40
2018-03-17T12:38:18.524Z,79.10
2018-03-17T12:40:46.017Z,80.00
2018-03-17T12:43:13.468Z,79.40
2018-03-17T12:45:40.979Z,79.20
2018-03-17T12:48:09.199Z,77.70
2018-03-17T12:50:36.753Z,77.70
2018-03-17T12:53:04.326Z,79.30
2018-03-17T12:55:31.846Z,80.50
2018-03-17T12:57:59.299Z,79.70
2018-03-17T13:00:26.763Z,81.10
2018-03-17T13:02:54.232Z,79.00
2018-03-17T13:05:21.797Z,78.20
2018-03-17T13:07:49.352Z,78.50
2018-03-17T13:10:16.868Z,78.20
2018-03-17T13:12:44.323Z,78.90
2018-03-17T13:15:11.796Z,78.60
2018-03-17T13:17:39.254Z,79.30
2018-03-17T13:20:06.700Z,79.40
2018-03-17T13:22:46.124Z,77.50
2018-03-17T13:25:13.575Z,77.70
2018-03-17T13:27:52.859Z,78.00
2018-03-17T13:30:21.080Z,77.20
2018-03-17T13:32:58.698Z,77.00
2018-03-17T13:35:38.690Z,77.40
2018-03-17T13:38:07.664Z,78.60
2018-03-17T13:40:42.281Z,78.60
2018-03-17T13:43:09.847Z,79.30
2018-03-17T13:45:37.318Z,78.30
2018-03-17T13:48:05.523Z,76.90
2018-03-17T13:50:32.994Z,76.90
2018-03-17T13:53:00.451Z,77.90
2018-03-17T13:55:27.899Z,76.10
2018-03-17T13:57:56.145Z,77.80
2018-03-17T14:00:23.587Z,77.70
2018-03-17T14:02:51.083Z,77.90
2018-03-17T14:05:18.548Z,78.50
2018-03-17T14:07:46.008Z,77.60
2018-03-17T14:10:13.464Z,76.90
2018-03-17T14:12:40.949Z,76.80
2018-03-17T14:15:08.444Z,78.50
2018-03-17T14:17:35.907Z,77.60
2018-03-17T14:20:03.487Z,77.40
2018-03-17T14:22:30.940Z,77.60
2018-03-17T14:24:58.420Z,78.70
2018-03-17T14:27:25.887Z,77.80
2018-03-17T14:29:53.352Z,77.40
2018-03-17T14:32:20.827Z,76.60
2018-03-17T14:34:48.400Z,75.90
2018-03-17T14:37:15.967Z,77.90
2018-03-17T14:39:43.423Z,77.70
2018-03-17T14:42:10.895Z,79.10
2018-03-17T14:44:38.353Z,75.90
2018-03-17T14:47:05.800Z,77.60
2018-03-17T14:49:33.279Z,76.50
2018-03-17T14:52:00.755Z,77.40
2018-03-17T14:54:28.213Z,78.80
2018-03-17T14:56:55.675Z,79.00
2018-03-17T14:59:23.153Z,79.70
2018-03-17T15:01:50.673Z,79.50
2018-03-17T15:04:18.235Z,79.70
2018-03-17T15:06:45.697Z,79.00
2018-03-17T15:09:13.204Z,81.40
2018-03-17T15:11:40.954Z,79.10
2018-03-17T15:14:08.396Z,79.10
2018-03-17T15:16:35.910Z,78.70
2018-03-17T15:19:03.473Z,77.70
2018-03-17T15:21:30.951Z,79.50
2018-03-17T15:23:58.395Z,77.10
2018-03-17T15:26:25.880Z,78.70
2018-03-17T15:28:53.407Z,77.60
2018-03-17T15:31:20.851Z,78.30
2018-03-17T15:33:49.114Z,78.30
2018-03-17T15:36:16.555Z,78.30
2018-03-17T15:38:44.063Z,78.20
2018-03-17T15:41:11.543Z,77.90
2018-03-17T15:43:39.006Z,79.10
2018-03-17T15:46:06.459Z,78.30
2018-03-17T15:48:34.028Z,79.30
2018-03-17T15:51:01.474Z,78.10
2018-03-17T15:53:28.934Z,77.30
2018-03-17T15:55:56.494Z,77.20
2018-03-17T15:58:23.964Z,77.70
2018-03-17T16:00:51.437Z,76.70
2018-03-17T16:03:19.008Z,79.30
2018-03-17T16:05:46.477Z,78.70
2018-03-17T16:08:13.927Z,78.90
2018-03-17T16:10:42.161Z,78.00
2018-03-17T16:13:09.623Z,77.80
2018-03-17T16:15:37.082Z,76.80
2018-03-17T16:18:04.552Z,78.20
2018-03-17T16:20:31.999Z,77.50
2018-03-17T16:23:00.224Z,79.00
2018-03-17T16:25:27.712Z,78.80
2018-03-17T16:27:55.191Z,76.20
2018-03-17T16:30:22.644Z,77.10
2018-03-17T16:32:50.219Z,77.60
2018-03-17T16:35:17.681Z,76.80
2018-03-17T16:37:45.127Z,76.30
2018-03-17T16:40:12.604Z,80.50
2018-03-17T16:42:40.100Z,79.70
2018-03-17T16:45:07.560Z,77.70
2018-03-17T16:47:35.106Z,77.20
2018-03-17T16:50:02.588Z,76.30
2018-03-17T16:52:30.217Z,77.10
2018-03-17T16:54:57.700Z,77.00
2018-03-17T16:57:25.956Z,78.10
2018-03-17T16:59:53.427Z,78.10
2018-03-17T17:02:20.947Z,78.60
2018-03-17T17:04:48.416Z,78.80
2018-03-17T17:07:16.635Z,77.30
2018-03-17T17:09:44.143Z,77.30
2018-03-17T17:12:11.588Z,76.80
2018-03-17T17:14:39.039Z,78.00
2018-03-17T17:17:06.520Z,77.80
2018-03-17T17:19:33.973Z,77.70
2018-03-17T17:22:01.465Z,77.20
2018-03-17T17:24:28.961Z,81.80
2018-03-17T17:26:56.408Z,80.50
2018-03-17T17:29:23.939Z,80.00
2018-03-17T17:31:51.412Z,78.40
2018-03-17T17:34:18.870Z,78.00
2018-03-17T17:36:47.090Z,77.30
2018-03-17T17:39:14.551Z,77.20
2018-03-17T17:41:42.709Z,76.40
2018-03-17T17:44:10.959Z,76.20
2018-03-17T17:46:38.433Z,76.10
2018-03-17T17:49:05.892Z,76.30
2018-03-17T17:51:33.349Z,77.60
2018-03-17T17:54:00.832Z,77.40
2018-03-17T17:56:28.287Z,76.50
2018-03-17T17:58:55.731Z,77.00
2018-03-17T18:01:23.204Z,76.50
2018-03-17T18:03:50.660Z,77.90
2018-03-17T18:06:18.881Z,78.60
2018-03-17T18:08:46.348Z,79.30
2018-03-17T18:11:13.820Z,77.00
2018-03-17T18:13:41.284Z,82.00
2018-03-17T18:16:08.760Z,79.60
2018-03-17T18:18:36.215Z,75.90
2018-03-17T18:21:03.676Z,75.90
2018-03-17T18:23:31.911Z,76.60
2018-03-17T18:25:59.513Z,76.60
2018-03-17T18:28:26.964Z,77.70
2018-03-17T18:30:54.506Z,77.60
2018-03-17T18:33:21.955Z,77.40
2018-03-17T18:35:49.403Z,77.20
2018-03-17T18:38:17.662Z,75.70
2018-03-17T18:40:45.123Z,75.70
2018-03-17T18:43:12.632Z,76.40
2018-03-17T18:45:40.896Z,77.60
2018-03-17T18:48:08.347Z,77.10
2018-03-17T18:50:35.798Z,77.60
2018-03-17T18:53:03.271Z,77.40
2018-03-17T18:55:30.796Z,76.20
2018-03-17T18:57:58.272Z,76.90
2018-03-17T19:00:26.517Z,78.40
2018-03-17T19:02:53.967Z,78.40
2018-03-17T19:05:21.443Z,78.30
2018-03-17T19:07:48.927Z,76.10
2018-03-17T19:10:16.390Z,77.00
2018-03-17T19:12:43.871Z,77.20
2018-03-17T19:16:00.712Z,80.10
2018-03-17T19:18:28.182Z,76.60
2018-03-17T19:20:55.678Z,76.10
2018-03-17T19:23:23.163Z,77.20
2018-03-17T19:25:50.628Z,78.40
2018-03-17T19:28:18.871Z,78.30
2018-03-17T19:30:46.358Z,78.30
2018-03-17T19:33:13.971Z,78.10
2018-03-17T19:35:41.441Z,77.90
2018-03-17T19:38:08.919Z,78.20
2018-03-17T19:40:36.393Z,77.80
2018-03-17T19:43:03.856Z,76.90
2018-03-17T19:45:31.363Z,77.60
2018-03-17T19:47:58.892Z,76.40
2018-03-17T19:50:26.351Z,77.50
2018-03-17T19:52:54.591Z,78.20
2018-03-17T19:55:22.076Z,78.10
2018-03-17T19:57:49.637Z,78.10
2018-03-17T20:00:17.123Z,78.10
2018-03-17T20:02:44.583Z,79.30
2018-03-17T20:05:12.044Z,79.70
2018-03-17T20:07:39.532Z,77.50
2018-03-17T20:10:07.008Z,77.90
2018-03-17T20:12:34.462Z,79.60
2018-03-17T20:15:02.719Z,79.40
2018-03-17T20:17:30.215Z,79.40
2018-03-17T20:19:57.684Z,80.10
2018-03-17T20:22:25.251Z,78.50
2018-03-17T20:24:52.743Z,79.50
2018-03-17T20:27:20.199Z,79.60
2018-03-17T20:29:47.775Z,79.10
2018-03-17T20:32:15.231Z,78.10
2018-03-17T20:34:42.700Z,79.30
2018-03-17T20:37:10.180Z,80.00
2018-03-17T20:39:37.634Z,78.00
2018-03-17T20:42:05.115Z,78.90
2018-03-17T20:44:32.625Z,78.60
2018-03-17T20:47:00.060Z,79.30
2018-03-17T20:49:27.511Z,79.30
2018-03-17T20:51:55.005Z,78.20
2018-03-17T20:54:22.463Z,79.80
2018-03-17T20:56:49.939Z,78.80
2018-03-17T20:59:17.428Z,78.10
2018-03-17T21:01:44.896Z,79.00
2018-03-17T21:04:12.486Z,79.00
2018-03-17T21:06:39.922Z,78.40
2018-03-17T21:09:07.384Z,78.60
2018-03-17T21:11:34.839Z,78.30
2018-03-17T21:14:02.340Z,79.40
2018-03-17T21:16:29.924Z,78.20
2018-03-17T21:18:57.375Z,78.00
2018-03-17T21:21:25.714Z,78.30
2018-03-17T21:23:53.182Z,78.40
2018-03-17T21:26:21.414Z,80.10
2018-03-17T21:28:48.901Z,80.00
2018-03-17T21:31:16.377Z,79.70
2018-03-17T21:33:43.827Z,79.20
2018-03-17T21:36:11.307Z,80.10
2018-03-17T21:38:38.774Z,79.20
2018-03-17T21:41:06.236Z,78.10
2018-03-17T21:43:33.720Z,78.10
2018-03-17T21:46:01.280Z,78.10
2018-03-17T21:48:28.743Z,78.30
2018-03-17T21:50:56.220Z,78.80
2018-03-17T21:53:23.687Z,79.30
2018-03-17T21:55:51.144Z,78.90
2018-03-17T21:58:18.635Z,78.70
2018-03-17T22:00:46.898Z,79.90
2018-03-17T22:03:14.340Z,79.80
2018-03-17T22:05:41.811Z,79.30
2018-03-17T22:08:09.263Z,79.00
2018-03-17T22:10:37.571Z,80.00
2018-03-17T22:13:05.043Z,79.90
2018-03-17T22:15:32.509Z,79.40
2018-03-17T22:17:59.959Z,78.30
2018-03-17T22:20:28.219Z,78.40
2018-03-17T22:22:56.557Z,78.30
2018-03-17T22:25:24.027Z,79.40
2018-03-17T22:27:51.501Z,78.50
2018-03-17T22:30:18.967Z,79.20
2018-03-17T22:32:46.450Z,78.20
2018-03-17T22:35:13.926Z,79.20
2018-03-17T22:37:41.477Z,79.90
2018-03-17T22:40:08.924Z,79.20
2018-03-17T22:42:37.487Z,78.00
2018-03-17T22:45:04.942Z,77.80
2018-03-17T22:47:32.451Z,77.70
2018-03-17T22:49:59.954Z,78.20
2018-03-17T22:52:27.410Z,79.40
2018-03-17T22:54:55.630Z,78.40
2018-03-17T22:57:23.109Z,78.30
2018-03-17T22:59:50.567Z,78.80
2018-03-17T23:02:18.027Z,77.80
2018-03-17T23:04:45.506Z,77.60
2018-03-17T23:07:12.963Z,78.20
2018-03-17T23:09:40.485Z,78.10
2018-03-17T23:12:07.948Z,78.30
2018-03-17T23:14:35.408Z,78.10
2018-03-17T23:17:02.883Z,79.30
2018-03-17T23:19:30.369Z,80.20
2018-03-17T23:21:57.818Z,79.60
2018-03-17T23:24:25.294Z,78.20
2018-03-17T23:26:52.779Z,78.70
2018-03-17T23:29:20.238Z,79.20
2018-03-17T23:31:47.719Z,78.70
2018-03-17T23:34:15.199Z,79.40
2018-03-17T23:36:42.655Z,79.50
2018-03-17T23:39:10.211Z,79.20
2018-03-17T23:41:37.692Z,79.90
2018-03-17T23:44:05.195Z,79.50
2018-03-17T23:46:32.623Z,80.30
2018-03-17T23:49:00.104Z,79.50
2018-03-17T23:51:27.563Z,79.70
2018-03-17T23:53:55.033Z,79.20
2018-03-17T23:56:22.508Z,80.10
2018-03-17T23:58:49.971Z,80.90
